Aviation Digital Data Service (ADDS)

Output produced by METARs form (1923 UTC 18 June 2019)
found at http://www.aviationweather.gov/metar/data/
 
KALN 181845Z VRB04KT 10SM BKN026 BKN034 26/21 A2990
KBLV 181856Z AUTO 01006KT 10SM HZ CLR 28/20 A2988 RMK AO2 VIS 1 1/8 RWY32L SLP118 T02820202 $
TAF KBLV 181600Z 1816/1922 VRB06KT 9000 BR OVC019 QNH2990INS 
     BECMG 1816/1817 VRB06KT 9999 NSW BKN030 QNH2985INS 
     BECMG 1917/1918 21012KT 8000 -SHRA OVC011 510653 QNH2961INS 
     TEMPO 1918/1922 25015G25KT 4800 -TSRA OVC009CB TX28/1820Z TN21/1908Z
       
KBMI 181856Z VRB03KT 10SM BKN040 27/16 A2994 RMK AO2 SLP131 T02670161
KBMI 181728Z 1818/1918 VRB04KT P6SM SCT035 
     FM191500 10006KT P6SM BKN100 
     FM191700 13005KT P6SM VCSH SCT025 BKN040
       
KCPS 181853Z VRB04KT 10SM FEW030 SCT042 28/20 A2989 RMK AO2 SLP117 T02780200 $
KCPS 181735Z 1818/1918 02004KT P6SM VCTS BKN030CB 
     FM182300 03004KT P6SM SCT035 
     FM190100 VRB03KT P6SM SCT120 
     FM190900 VRB03KT 6SM BR VCSH BKN035 
     FM191500 18006KT 5SM -RA BR VCTS OVC030CB
       
KCIR 181915Z AUTO 23005KT 10SM CLR 27/21 A2988 RMK AO2 T02700205
KMDH 181852Z 26005KT 10SM BKN033 28/20 A2988 RMK AO2 SLP114 T02780200
KENL 181915Z AUTO 01008KT 10SM SCT024 BKN031 OVC070 27/23 A2988 RMK AO2 T02730232
KCMI 181853Z 04004KT 10SM SCT028 SCT050 26/18 A2992 RMK AO2 SLP125 T02610183
KCMI 181728Z 1818/1918 VRB04KT P6SM SCT035 
     FM191500 10006KT P6SM BKN100 
     FM191700 13005KT P6SM VCSH SCT025 BKN050
       
KARR 181852Z VRB04KT 9SM CLR 26/17 A2992 RMK AO2 SLP130 T02560167
KPWK 181852Z VRB05KT 10SM CLR 24/14 A2995 RMK AO2 SLP138 T02440144
KMDW 181853Z 13004KT 10SM FEW029 FEW110 SCT250 23/16 A2993 RMK AO2 SLP131 T02330161
KMDW 181740Z 1818/1924 09007KT P6SM SCT030 SCT120 
     FM190100 08003KT P6SM FEW035 SCT100 
     FM190900 05003KT 4SM BR SCT060 BKN100 
     TEMPO 1909/1913 1 1/2SM BR 
     FM191300 04008KT P6SM SCT030 OVC060 
     PROB30 1917/1920 4SM -SHRA BR OVC050
       
KORD 181851Z 00000KT 10SM FEW041 SCT200 BKN250 24/13 A2992 RMK AO2 SLP131 T02440133
KORD 181740Z 1818/1924 09007KT P6SM SCT040 SCT120 
     FM190100 08003KT P6SM FEW035 SCT100 
     FM190900 05003KT 4SM BR SCT060 BKN100 
     TEMPO 1909/1913 1 1/2SM BR 
     FM191300 04008KT P6SM SCT030 OVC060 
     PROB30 1917/1920 4SM -SHRA BR OVC050
       
KDPA 181852Z 00000KT 10SM SCT039 26/15 A2992 RMK AO2 SLP129 T02560150
KDPA 181740Z 1818/1918 08007KT P6SM SCT040 SCT120 
     FM190100 08003KT P6SM FEW035 SCT100 
     FM190900 05003KT 1 1/2SM BR SCT060 BKN100 
     TEMPO 1909/1912 1/2SM FG 
     FM191300 04008KT P6SM SCT030 OVC060
       
KIGQ 181915Z AUTO 00000KT 10SM BKN027 BKN032 23/18 A2993 RMK AO2 T02340175
K06C 181915Z AUTO 00000KT 10SM CLR 26/16 A2992 RMK AO2 T02570159
KUGN 181855Z 11006KT 10SM FEW080 21/14 A2994 RMK AO2 SLP135 T02060144
KLOT 181915Z AUTO 10003KT 10SM SCT031 24/18 A2992 RMK AO2 T02370175
KDNV 181915Z AUTO 29003KT 10SM CLR 26/18 A2988 RMK AO2 T02600182
KDEC 181907Z 02004KT 10SM BKN030 BKN038 BKN055 26/18 A2991 RMK AO2 T02610183
KDEC 181728Z 1818/1918 VRB04KT P6SM SCT035 
     FM191500 10006KT P6SM SCT025 BKN100 
     FM191700 13005KT P6SM VCSH SCT025 BKN040
       
KDKB 181915Z AUTO 00000KT 10SM CLR 25/15 A2993 RMK AO2 T02490153
K1H2 181915Z AUTO 06004KT 10SM SCT033 SCT043 BKN060 28/19 A2990 RMK AO2 T02770188
KFWC 181915Z AUTO 00000KT 10SM SCT034 SCT070 27/19 A2986 RMK AO1 T02710194
KFOA 181915Z AUTO 00000KT 10SM SCT085 28/21 A2989 RMK AO2 T02760206
KFEP 181915Z AUTO 28004KT 10SM BKN040 24/16 A2995 RMK AO2 T02360157
KGBG 181915Z AUTO 00000KT 10SM BKN043 27/15 A2993 RMK AO2 T02680153
KHSB 181915Z AUTO 00000KT 10SM SCT029 SCT037 BKN060 28/24 A2988 RMK AO2 T02840237
KIJX 181915Z AUTO 26003KT 10SM BKN034 BKN043 OVC050 26/17 A2992 RMK AO2 T02560173
KIKK 181915Z AUTO 05003KT 10SM BKN028 24/17 A2993 RMK AO2 T02380166
KC75 181915Z AUTO 33005KT 10SM BKN036 25/17 A2992 RMK AO2 T02460167
KLWV 181853Z AUTO 00000KT 10SM SCT032 SCT042 BKN100 28/20 A2987 RMK AO2 SLP110 T02830200
KAAA 181915Z AUTO 00000KT 10SM SCT039 27/18 A2991 RMK AO2 T02650177
K3LF 181915Z AUTO 36006KT 10SM SCT027 BKN038 BKN044 26/20 A2991 RMK AO2 T02570200
KMQB 181915Z AUTO 17003KT 10SM CLR 25/16 A2995 RMK AO2 T02490162
KMWA 181845Z 20008KT 20SM SCT032 28/21 A2989
KM30 181915Z AUTO 00000KT 4SM HZ CLR 28/21 A2988 RMK AO2 T02840209
KMLI 181852Z VRB05KT 10SM CLR 27/16 A2992 RMK AO2 SLP130 T02670156
KMLI 181740Z 1818/1918 VRB03KT P6SM SCT090 
     FM182200 VRB03KT P6SM BKN100 
     FM190600 00000KT P6SM VCTS BKN070CB 
     FM191100 VRB03KT P6SM VCTS OVC050CB 
     FM191200 VRB03KT P6SM OVC070
       
KC09 181915Z AUTO 31003KT 10SM BKN028 24/17 A2992 RMK AO2 T02410169
KAJG 181915Z AUTO 00000KT 10SM BKN100 BKN120 26/21 A2987 RMK AO2 T02640213
KI63 181915Z AUTO 09003KT 10SM CLR 25/18 A2992 RMK AO2 T02530176
KMVN 181856Z AUTO 00000KT 9SM SCT035 28/21 A2988 RMK AO2 SLP114 T02830206
KMVN 181720Z 1818/1918 VRB03KT P6SM VCSH SCT035 
     FM190000 VRB02KT P6SM FEW030 SCT080 
     FM191400 22006KT P6SM BKN025
       
KOLY 181915Z AUTO 00000KT 10SM SCT045 SCT055 SCT100 27/21 A2989 RMK AO2 T02650210
KPIA 181854Z 00000KT 10SM BKN042 26/16 A2992 RMK AO2 SLP127 T02560156
KPIA 181728Z 1818/1918 VRB04KT P6SM SCT035 
     FM191500 06006KT P6SM BKN100 
     FM191700 09005KT P6SM VCSH SCT025 BKN040
       
KVYS 181915Z AUTO 24003KT 10SM SCT038 24/16 A2993 RMK AO2 T02350155
KPPQ 181915Z AUTO 01003KT 10SM SCT032 SCT040 SCT048 26/20 A2993 RMK AO2 T02610199
KPNT 181915Z AUTO 00000KT 10SM SCT031 24/17 A2993 RMK AO2 T02410166
KUIN 181854Z AUTO VRB03KT 10SM SCT032 26/17 A2993 RMK AO2 SLP128 T02560172
KUIN 181735Z 1818/1918 VRB04KT P6SM SCT040 
     FM190100 VRB03KT P6SM SCT120 BKN250 
     FM190800 VRB03KT P6SM VCSH BKN040 
     FM191300 08006KT 3SM -RA BR VCTS OVC015CB
       
KTIP 181915Z AUTO 00000KT 10SM SCT037 SCT043 26/17 A2991 RMK AO2 T02550174
KRSV 181915Z AUTO 33003KT 10SM SCT025 SCT036 BKN070 26/20 A2989 RMK AO2 T02590204
KRPJ 181915Z AUTO 00000KT 10SM BKN036 BKN042 25/17 A2993 RMK AO2 T02460168
KRFD 181854Z VRB04KT 10SM SCT039 SCT250 26/16 A2993 RMK AO2 SLP133 T02560161
KRFD 181740Z 1818/1918 30005KT P6SM BKN035 
     FM182000 28005KT P6SM SCT040 SCT100 
     FM190000 VRB03KT P6SM BKN050 
     FM190700 VRB03KT P6SM VCSH OVC040 
     PROB30 1907/1912 4SM -SHRA BR 
     FM191400 04008KT 6SM -SHRA SCT025 OVC035
       
KSLO 181915Z AUTO 01004KT 10SM SCT031 OVC100 26/23 A2989 RMK AO2 T02560233
KSFY 181915Z AUTO 00000KT 10SM SCT120 25/13 A2993 RMK AO2
KSAR 181915Z AUTO 03003KT 10SM SCT100 28/21 A2989 RMK AO2 T02790205
KSPI 181852Z VRB05KT 10SM CLR 27/18 A2992 RMK AO2 SLP125 T02720183
KSPI 181728Z 1818/1918 VRB04KT P6SM SCT035 
     FM191500 10006KT P6SM SCT025 BKN100 
     FM191700 13005KT P6SM VCSH SCT025 BKN040
       
KSQI 181856Z AUTO 01003KT 10SM BKN038 26/17 A2994 RMK AO2 SLP003 T02560172
KTAZ 181915Z AUTO 01004KT BKN027 OVC036 25/19 A2991 RMK AO2 T02480189 PWINO